Search for airport 
image banner adimage banner adimage banner ad
image banner ad

KFUL - Fullerton Muni

Located in Fullerton, United States

ICAO - FUL, IATA - FUL

Data provided by Airmate  

General information

Coordinates: N33°52'19" W117°58'47"
Elevation is 96 feet MSL.
Magnetic variation is 14° East
View others Airports in California

Operational data

Special qualification required
Current time UTC:
Current local time:
Weather
METAR: KFUL 291553Z 00000KT 10SM CLR 24/16 A2992 RMK AO2 SLP132 T02390161
View NOTAMs / SUP AIP / TFR affecting this airport [VIEW]
Communications frequencies: [VIEW]

Runways:

RWY identifierQFULength (ft)Width (ft)SurfaceLDA (ft)
0677°312175ASPH
24257°312175ASPH

Airport contact information

Address: Fullerton United States

Other aviation service providers

Flight schools

Air Combat Usa

Air Combat Usa

Afi Flight Training Center

Afi Flight Training Center
billjr@flyafi.com+1(714)870-9931

Fun Outside Aviation Academy

Fun Outside Aviation Academy
garrett@funoutside.net+1(714)386-9933

Skythrills!

Skythrills!
skythrills@gmail.com+1(714)402-4888

Satellite view of KFUL